createdAt,value
2023-12-31T00:02:57.481Z,21.85
2023-12-31T00:08:00.931Z,28.35
2023-12-31T00:13:04.660Z,27.70
2023-12-31T00:18:08.089Z,30.13
2023-12-31T00:23:13.581Z,25.60
2023-12-31T00:28:16.860Z,13.73
2023-12-31T00:33:19.935Z,21.33
2023-12-31T00:38:23.051Z,34.55
2023-12-31T00:43:26.041Z,29.05
2023-12-31T00:48:29.531Z,31.77
2023-12-31T00:53:33.763Z,29.60
2023-12-31T00:58:37.590Z,24.77
2023-12-31T01:03:41.250Z,34.53
2023-12-31T01:08:44.342Z,28.88
2023-12-31T01:13:47.555Z,29.25
2023-12-31T01:18:50.923Z,32.78
2023-12-31T01:23:54.100Z,31.05
2023-12-31T01:28:57.208Z,30.10
2023-12-31T01:34:00.267Z,31.23
2023-12-31T01:39:03.511Z,24.05
2023-12-31T01:44:08.617Z,24.75
2023-12-31T01:49:12.785Z,24.30
2023-12-31T01:54:16.721Z,26.98
2023-12-31T01:59:20.126Z,26.42
2023-12-31T02:04:23.815Z,24.45
2023-12-31T02:09:27.065Z,28.02
2023-12-31T02:14:30.095Z,27.58
2023-12-31T02:19:33.349Z,23.80
2023-12-31T02:24:46.184Z,17.27
2023-12-31T02:29:49.175Z,23.58
2023-12-31T02:34:52.304Z,18.45
2023-12-31T02:39:55.280Z,20.25
2023-12-31T02:44:58.767Z,20.20
2023-12-31T02:50:02.256Z,27.30
2023-12-31T02:55:07.673Z,19.70
2023-12-31T03:00:11.518Z,19.08
2023-12-31T03:05:15.051Z,20.50
2023-12-31T03:10:18.996Z,20.55
2023-12-31T03:15:22.932Z,17.73
2023-12-31T03:20:26.027Z,18.08
2023-12-31T03:25:29.358Z,17.80
2023-12-31T03:30:32.520Z,19.13
2023-12-31T03:35:35.534Z,19.73
2023-12-31T03:40:38.703Z,17.23
2023-12-31T03:45:41.772Z,19.65
2023-12-31T03:50:45.182Z,16.50
2023-12-31T03:55:48.476Z,18.98
2023-12-31T04:00:52.379Z,18.38
2023-12-31T04:05:55.800Z,18.52
2023-12-31T04:10:58.887Z,19.10
2023-12-31T04:16:02.138Z,18.70
2023-12-31T04:21:05.516Z,22.38
2023-12-31T04:26:08.780Z,18.70
2023-12-31T04:31:11.795Z,20.95
2023-12-31T04:36:14.987Z,17.02
2023-12-31T04:41:22.692Z,24.42
2023-12-31T04:46:26.073Z,19.65
2023-12-31T04:51:31.448Z,22.90
2023-12-31T04:56:35.143Z,20.23
2023-12-31T05:01:38.195Z,15.68
2023-12-31T05:06:41.354Z,17.30
2023-12-31T05:11:44.504Z,17.45
2023-12-31T05:16:47.641Z,17.85
2023-12-31T05:21:50.845Z,15.50
2023-12-31T05:26:53.967Z,15.05
2023-12-31T05:31:57.319Z,22.10
2023-12-31T05:37:00.494Z,18.88
2023-12-31T05:42:03.704Z,15.52
2023-12-31T05:47:06.965Z,11.65
2023-12-31T05:52:10.444Z,17.38
2023-12-31T05:57:13.626Z,13.27
2023-12-31T06:02:16.798Z,16.65
2023-12-31T06:07:19.826Z,13.82
2023-12-31T06:12:22.855Z,14.82
2023-12-31T06:17:25.961Z,18.42
2023-12-31T06:22:29.063Z,14.32
2023-12-31T06:27:32.247Z,16.90
2023-12-31T06:32:35.601Z,15.52
2023-12-31T06:37:38.751Z,14.57
2023-12-31T06:42:41.833Z,15.63
2023-12-31T06:47:45.128Z,21.60
2023-12-31T06:52:48.922Z,16.85
2023-12-31T06:57:52.154Z,14.10
2023-12-31T07:02:55.479Z,15.85
2023-12-31T07:07:58.697Z,14.48
2023-12-31T07:13:02.022Z,15.90
2023-12-31T07:18:05.554Z,16.13
2023-12-31T07:23:08.728Z,14.75
2023-12-31T07:28:11.930Z,18.88
2023-12-31T07:33:15.057Z,19.25
2023-12-31T07:38:18.253Z,17.73
2023-12-31T07:43:21.429Z,17.25
2023-12-31T07:48:25.813Z,15.45
2023-12-31T07:53:29.173Z,20.67
2023-12-31T07:58:32.421Z,15.38
2023-12-31T08:03:35.860Z,17.10
2023-12-31T08:08:39.038Z,15.40
2023-12-31T08:13:42.667Z,13.88
2023-12-31T08:18:45.866Z,12.48
2023-12-31T08:23:48.996Z,12.38
2023-12-31T08:28:52.788Z,9.85
2023-12-31T08:33:56.279Z,13.73
2023-12-31T08:38:59.596Z,13.60
2023-12-31T08:44:02.704Z,15.65
2023-12-31T08:49:07.474Z,13.82
2023-12-31T08:54:10.770Z,12.85
2023-12-31T08:59:13.901Z,11.98
2023-12-31T09:04:17.113Z,11.90
2023-12-31T09:09:20.111Z,13.88
2023-12-31T09:14:23.168Z,15.63
2023-12-31T09:19:26.361Z,10.50
2023-12-31T09:24:29.383Z,12.80
2023-12-31T09:29:32.414Z,10.27
2023-12-31T09:34:35.587Z,9.63
2023-12-31T09:39:57.644Z,10.20
2023-12-31T09:45:04.959Z,8.90
2023-12-31T09:50:09.764Z,7.40
2023-12-31T09:55:13.457Z,6.70
2023-12-31T10:00:17.004Z,5.25
2023-12-31T10:05:23.840Z,4.68
2023-12-31T10:10:28.960Z,3.80
2023-12-31T10:15:32.701Z,4.40
2023-12-31T10:20:40.108Z,2.92
2023-12-31T10:25:44.111Z,3.60
2023-12-31T10:30:50.310Z,2.92
2023-12-31T10:36:04.856Z,3.50
2023-12-31T10:41:15.851Z,3.33
2023-12-31T10:46:23.014Z,2.88
2023-12-31T10:51:26.139Z,2.88
2023-12-31T10:56:30.324Z,2.90
2023-12-31T11:01:33.759Z,3.63
2023-12-31T11:06:37.778Z,3.03
2023-12-31T11:11:41.033Z,3.47
2023-12-31T11:16:57.757Z,3.55
2023-12-31T11:22:28.205Z,2.35
2023-12-31T11:27:35.691Z,3.50
2023-12-31T11:32:38.916Z,3.58
2023-12-31T11:37:42.589Z,3.40
2023-12-31T11:42:45.806Z,3.80
2023-12-31T11:47:48.821Z,4.15
2023-12-31T11:52:54.297Z,4.70
2023-12-31T11:57:57.991Z,3.63
2023-12-31T12:03:04.448Z,4.80
2023-12-31T12:08:09.728Z,4.30
2023-12-31T12:13:13.987Z,3.33
2023-12-31T12:18:28.479Z,4.22
2023-12-31T12:23:31.568Z,3.92
2023-12-31T12:28:35.540Z,5.13
2023-12-31T12:33:38.682Z,4.22
2023-12-31T12:38:43.482Z,3.90
2023-12-31T12:43:47.412Z,3.72
2023-12-31T12:48:51.807Z,3.28
2023-12-31T12:53:55.327Z,3.60
2023-12-31T12:58:59.328Z,5.72
2023-12-31T13:04:02.660Z,4.75
2023-12-31T13:09:06.141Z,5.72
2023-12-31T13:14:09.236Z,4.90
2023-12-31T13:19:12.518Z,5.70
2023-12-31T13:24:17.282Z,5.45
2023-12-31T13:29:20.657Z,6.13
2023-12-31T13:34:23.881Z,5.28
2023-12-31T13:39:26.969Z,5.32
2023-12-31T13:44:30.231Z,5.70
2023-12-31T13:49:33.992Z,4.15
2023-12-31T13:54:37.048Z,4.47
2023-12-31T13:59:40.413Z,6.90
2023-12-31T14:04:46.251Z,5.68
2023-12-31T14:09:49.360Z,5.07
2023-12-31T14:14:52.806Z,6.05
2023-12-31T14:19:56.166Z,6.93
2023-12-31T14:24:59.464Z,5.72
2023-12-31T14:30:02.633Z,7.43
2023-12-31T14:35:07.759Z,7.10
2023-12-31T14:40:11.338Z,4.70
2023-12-31T14:45:14.308Z,6.07
2023-12-31T14:50:17.880Z,6.00
2023-12-31T14:55:21.420Z,6.47
2023-12-31T15:00:25.064Z,5.75
2023-12-31T15:05:28.397Z,5.57
2023-12-31T15:10:31.906Z,5.40
2023-12-31T15:15:35.691Z,5.47
2023-12-31T15:20:41.995Z,7.05
2023-12-31T15:25:46.050Z,6.10
2023-12-31T15:30:49.271Z,6.93
2023-12-31T15:35:53.412Z,6.10
2023-12-31T15:40:57.069Z,4.95
2023-12-31T15:46:00.833Z,4.88
2023-12-31T15:51:05.977Z,5.15
2023-12-31T15:56:09.054Z,4.72
2023-12-31T16:01:12.663Z,4.35
2023-12-31T16:06:16.332Z,4.13
2023-12-31T16:11:20.886Z,5.45
2023-12-31T16:16:24.256Z,4.07
2023-12-31T16:21:27.366Z,4.63
2023-12-31T16:26:30.603Z,4.72
2023-12-31T16:31:34.075Z,4.90
2023-12-31T16:36:37.569Z,4.50
2023-12-31T16:41:41.020Z,4.03
2023-12-31T16:46:44.830Z,4.07
2023-12-31T16:51:48.082Z,3.70
2023-12-31T16:56:51.213Z,4.65
2023-12-31T17:01:55.342Z,4.53
2023-12-31T17:06:58.688Z,3.80
2023-12-31T17:12:02.183Z,4.78
2023-12-31T17:17:05.499Z,4.05
2023-12-31T17:22:08.634Z,4.60
2023-12-31T17:27:13.429Z,4.35
2023-12-31T17:32:16.516Z,5.43
2023-12-31T17:37:19.581Z,4.88
2023-12-31T17:42:22.668Z,4.18
2023-12-31T17:47:26.359Z,4.82
2023-12-31T17:52:29.739Z,3.70
2023-12-31T17:57:32.979Z,5.10
2023-12-31T18:02:36.450Z,2.17
2023-12-31T18:07:39.759Z,4.00
2023-12-31T18:12:43.451Z,2.85
2023-12-31T18:17:46.660Z,3.83
2023-12-31T18:22:49.820Z,3.65
2023-12-31T18:27:52.977Z,3.50
2023-12-31T18:32:55.971Z,3.47
2023-12-31T18:37:59.146Z,4.93
2023-12-31T18:43:02.262Z,4.88
2023-12-31T18:48:06.105Z,4.18
2023-12-31T18:53:09.706Z,3.55
2023-12-31T18:58:12.873Z,3.65
2023-12-31T19:03:16.183Z,4.10
2023-12-31T19:08:20.270Z,4.05
2023-12-31T19:13:23.327Z,4.18
2023-12-31T19:18:26.561Z,3.78
2023-12-31T19:23:30.358Z,4.10
2023-12-31T19:28:33.351Z,2.67
2023-12-31T19:33:36.563Z,4.00
2023-12-31T19:38:39.690Z,3.95
2023-12-31T19:44:04.655Z,3.80
2023-12-31T19:49:07.031Z,4.07
2023-12-31T19:54:12.321Z,3.85
2023-12-31T19:59:17.934Z,4.05
2023-12-31T20:04:21.425Z,3.85
2023-12-31T20:09:24.605Z,3.83
2023-12-31T20:14:27.773Z,3.65
2023-12-31T20:19:31.129Z,4.25
2023-12-31T20:24:34.088Z,3.30
2023-12-31T20:29:37.844Z,3.60
2023-12-31T20:34:41.009Z,3.22
2023-12-31T20:39:44.946Z,3.42
2023-12-31T20:44:48.203Z,2.75
2023-12-31T20:49:51.321Z,2.58
2023-12-31T20:54:54.441Z,2.40
2023-12-31T20:59:57.643Z,4.20
2023-12-31T21:05:01.339Z,3.47
2023-12-31T21:10:07.041Z,5.38
2023-12-31T21:15:10.534Z,4.65
2023-12-31T21:20:14.011Z,6.72
2023-12-31T21:25:17.216Z,8.05
2023-12-31T21:30:21.428Z,5.88
2023-12-31T21:35:24.995Z,5.85
2023-12-31T21:40:28.058Z,5.90
2023-12-31T21:45:31.124Z,8.45
2023-12-31T21:50:34.765Z,6.18
2023-12-31T21:55:49.709Z,7.38
2023-12-31T22:01:02.188Z,7.25
2023-12-31T22:06:13.142Z,6.10
2023-12-31T22:11:16.584Z,7.43
2023-12-31T22:16:21.265Z,6.85
2023-12-31T22:21:24.730Z,7.90
2023-12-31T22:26:27.924Z,7.05
2023-12-31T22:31:31.340Z,5.53
2023-12-31T22:36:34.611Z,6.32
2023-12-31T22:41:37.941Z,5.82
2023-12-31T22:46:41.122Z,6.38
2023-12-31T22:51:44.374Z,4.60
2023-12-31T22:56:47.504Z,4.90
2023-12-31T23:01:50.576Z,3.25
2023-12-31T23:06:54.004Z,3.20
2023-12-31T23:11:57.601Z,2.85
2023-12-31T23:17:00.691Z,4.03
2023-12-31T23:22:04.089Z,4.63
2023-12-31T23:27:07.187Z,2.63
2023-12-31T23:32:12.198Z,3.20
2023-12-31T23:37:15.260Z,3.17
2023-12-31T23:42:18.388Z,2.03
2023-12-31T23:47:21.568Z,2.85
2023-12-31T23:52:24.784Z,3.38
2023-12-31T23:57:27.816Z,2.85
